Time,TemperatureF,DewpointF,PressureIn,WindDirection,WindDirectionDegrees,WindSpeedMPH,WindSpeedGustMPH,Humidity,HourlyPrecipIn,Conditions,Clouds,dailyrainin,SoftwareType,DateUTC
2013-09-04 00:01:00,62.1,59.0,29.71,SE,138,0.0,3.0,88,0.00,,,0.01,weatherlink.com 1.10,2013-09-04 04:01:00,
2013-09-04 00:16:00,61.5,58.0,29.71,SE,139,0.0,1.0,89,0.00,,,0.01,weatherlink.com 1.10,2013-09-04 04:16:00,
2013-09-04 00:31:00,60.7,58.0,29.71,SE,139,0.0,1.0,91,0.00,,,0.01,weatherlink.com 1.10,2013-09-04 04:31:00,
2013-09-04 00:47:00,60.1,58.0,29.71,SE,139,0.0,1.0,93,0.00,,,0.01,weatherlink.com 1.10,2013-09-04 04:47:00,
2013-09-04 01:02:00,60.1,58.0,29.71,NW,313,1.0,2.0,92,0.00,,,0.01,weatherlink.com 1.10,2013-09-04 05:02:00,
2013-09-04 01:17:00,60.4,58.0,29.71,NW,305,0.0,1.0,91,0.00,,,0.00,weatherlink.com 1.10,2013-09-04 05:17:00,
2013-09-04 01:31:00,60.8,58.0,29.71,WNW,298,0.0,5.0,90,0.00,,,0.00,weatherlink.com 1.10,2013-09-04 05:31:00,
2013-09-04 01:47:00,60.9,58.0,29.70,NW,317,0.0,2.0,90,0.00,,,0.00,weatherlink.com 1.10,2013-09-04 05:47:00,
2013-09-04 02:02:00,60.7,58.0,29.71,NNW,342,2.0,3.0,89,0.00,,,0.00,weatherlink.com 1.10,2013-09-04 06:02:00,
2013-09-04 02:17:00,60.4,58.0,29.71,East,92,0.0,2.0,90,0.00,,,0.00,weatherlink.com 1.10,2013-09-04 06:17:00,
2013-09-04 02:32:00,59.5,57.0,29.71,SE,140,0.0,2.0,92,0.00,,,0.00,weatherlink.com 1.10,2013-09-04 06:32:00,
2013-09-04 02:46:00,59.0,57.0,29.71,SE,140,0.0,1.0,93,0.00,,,0.00,weatherlink.com 1.10,2013-09-04 06:46:00,
2013-09-04 03:02:00,58.4,57.0,29.71,SE,140,1.0,1.0,94,0.00,,,0.00,weatherlink.com 1.10,2013-09-04 07:02:00,
2013-09-04 03:17:00,58.2,57.0,29.71,SE,140,0.0,1.0,94,0.00,,,0.00,weatherlink.com 1.10,2013-09-04 07:17:00,
2013-09-04 03:31:00,57.6,56.0,29.71,SE,140,0.0,0.0,95,0.00,,,0.00,weatherlink.com 1.10,2013-09-04 07:31:00,
2013-09-04 03:47:00,57.1,56.0,29.72,SE,140,0.0,0.0,95,0.00,,,0.00,weatherlink.com 1.10,2013-09-04 07:47:00,
2013-09-04 04:02:00,56.7,56.0,29.73,SE,140,0.0,1.0,96,0.00,,,0.00,weatherlink.com 1.10,2013-09-04 08:02:00,
2013-09-04 04:17:00,56.7,56.0,29.73,SE,140,0.0,0.0,96,0.00,,,0.00,weatherlink.com 1.10,2013-09-04 08:17:00,
2013-09-04 04:32:00,57.0,56.0,29.73,SE,143,0.0,1.0,97,0.00,,,0.00,weatherlink.com 1.10,2013-09-04 08:32:00,
2013-09-04 04:46:00,57.2,56.0,29.74,SE,143,0.0,0.0,97,0.00,,,0.00,weatherlink.com 1.10,2013-09-04 08:46:00,
2013-09-04 05:02:00,58.0,57.0,29.74,SSW,203,0.0,3.0,97,0.00,,,0.00,weatherlink.com 1.10,2013-09-04 09:02:00,
2013-09-04 05:17:00,59.0,58.0,29.75,NW,321,0.0,2.0,95,0.00,,,0.00,weatherlink.com 1.10,2013-09-04 09:17:00,
2013-09-04 05:32:00,59.0,57.0,29.75,North,349,0.0,1.0,93,0.00,,,0.00,weatherlink.com 1.10,2013-09-04 09:32:00,
2013-09-04 05:47:00,58.8,57.0,29.75,North,349,0.0,1.0,94,0.00,,,0.00,weatherlink.com 1.10,2013-09-04 09:47:00,
2013-09-04 06:02:00,59.0,57.0,29.76,NNE,17,0.0,4.0,94,0.00,,,0.00,weatherlink.com 1.10,2013-09-04 10:02:00,
2013-09-04 06:17:00,58.8,57.0,29.76,NNE,17,0.0,0.0,93,0.00,,,0.00,weatherlink.com 1.10,2013-09-04 10:17:00,
2013-09-04 06:32:00,58.4,57.0,29.77,NNE,17,0.0,1.0,95,0.00,,,0.00,weatherlink.com 1.10,2013-09-04 10:32:00,
2013-09-04 06:47:00,58.3,57.0,29.77,NNE,17,0.0,1.0,95,0.00,,,0.00,weatherlink.com 1.10,2013-09-04 10:47:00,
2013-09-04 07:02:00,58.1,57.0,29.77,NNE,17,1.0,1.0,96,0.00,,,0.00,weatherlink.com 1.10,2013-09-04 11:02:00,
2013-09-04 07:17:00,59.0,58.0,29.77,NNE,17,0.0,2.0,95,0.00,,,0.00,weatherlink.com 1.10,2013-09-04 11:17:00,
2013-09-04 07:32:00,60.2,58.0,29.78,NNE,15,0.0,2.0,93,0.00,,,0.00,weatherlink.com 1.10,2013-09-04 11:32:00,
2013-09-04 07:47:00,61.5,59.0,29.78,NW,308,0.0,3.0,90,0.00,,,0.00,weatherlink.com 1.10,2013-09-04 11:47:00,
2013-09-04 08:03:00,62.9,59.0,29.78,WNW,290,0.0,3.0,87,0.00,,,0.00,weatherlink.com 1.10,2013-09-04 12:03:00,
2013-09-04 08:17:00,63.6,60.0,29.78,SSW,203,0.0,5.0,87,0.00,,,0.00,weatherlink.com 1.10,2013-09-04 12:17:00,
2013-09-04 08:32:00,64.2,60.0,29.78,South,181,0.0,3.0,86,0.00,,,0.00,weatherlink.com 1.10,2013-09-04 12:32:00,
2013-09-04 08:47:00,65.3,60.0,29.78,SSW,192,1.0,3.0,84,0.00,,,0.00,weatherlink.com 1.10,2013-09-04 12:47:00,
2013-09-04 09:02:00,67.0,61.0,29.78,South,183,1.0,3.0,82,0.00,,,0.00,weatherlink.com 1.10,2013-09-04 13:02:00,
2013-09-04 09:18:00,68.0,59.0,29.78,NE,53,4.0,8.0,72,0.00,,,0.00,weatherlink.com 1.10,2013-09-04 13:18:00,
2013-09-04 09:33:00,68.9,59.0,29.78,SSE,152,0.0,7.0,70,0.00,,,0.00,weatherlink.com 1.10,2013-09-04 13:33:00,
2013-09-04 09:48:00,69.4,59.0,29.78,South,183,3.0,7.0,70,0.00,,,0.00,weatherlink.com 1.10,2013-09-04 13:48:00,
2013-09-04 10:02:00,69.8,59.0,29.78,ENE,71,3.0,5.0,69,0.00,,,0.00,weatherlink.com 1.10,2013-09-04 14:02:00,
2013-09-04 10:17:00,70.4,58.0,29.78,NW,306,2.0,6.0,65,0.00,,,0.00,weatherlink.com 1.10,2013-09-04 14:17:00,
2013-09-04 10:33:00,70.4,57.0,29.78,East,88,2.0,10.0,63,0.00,,,0.00,weatherlink.com 1.10,2013-09-04 14:33:00,
2013-09-04 10:48:00,71.0,55.0,29.77,SSE,155,1.0,11.0,58,0.00,,,0.00,weatherlink.com 1.10,2013-09-04 14:48:00,
2013-09-04 11:02:00,71.5,57.0,29.77,NNW,333,2.0,10.0,60,0.00,,,0.00,weatherlink.com 1.10,2013-09-04 15:02:00,
2013-09-04 11:17:00,72.4,57.0,29.78,North,360,5.0,8.0,59,0.00,,,0.00,weatherlink.com 1.10,2013-09-04 15:17:00,
2013-09-04 11:33:00,72.6,56.0,29.77,NNW,346,1.0,10.0,57,0.00,,,0.00,weatherlink.com 1.10,2013-09-04 15:33:00,
2013-09-04 11:48:00,73.0,56.0,29.77,NNE,21,1.0,7.0,56,0.00,,,0.00,weatherlink.com 1.10,2013-09-04 15:48:00,
2013-09-04 12:03:00,74.1,58.0,29.76,NNW,342,3.0,5.0,57,0.00,,,0.00,weatherlink.com 1.10,2013-09-04 16:03:00,
2013-09-04 12:17:00,74.4,57.0,29.77,WNW,285,5.0,8.0,55,0.00,,,0.00,weatherlink.com 1.10,2013-09-04 16:17:00,
2013-09-04 12:34:00,74.6,55.0,29.76,NNE,19,3.0,8.0,50,0.00,,,0.00,weatherlink.com 1.10,2013-09-04 16:34:00,
2013-09-04 12:48:00,74.8,55.0,29.77,East,87,2.0,10.0,51,0.00,,,0.00,weatherlink.com 1.10,2013-09-04 16:48:00,
2013-09-04 13:03:00,75.2,55.0,29.77,NNE,22,5.0,7.0,49,0.00,,,0.00,weatherlink.com 1.10,2013-09-04 17:03:00,
2013-09-04 13:18:00,75.7,59.0,29.76,NW,321,1.0,7.0,57,0.00,,,0.00,weatherlink.com 1.10,2013-09-04 17:18:00,
2013-09-04 13:33:00,76.0,56.0,29.76,North,5,3.0,8.0,51,0.00,,,0.00,weatherlink.com 1.10,2013-09-04 17:33:00,
2013-09-04 13:48:00,76.4,58.0,29.76,North,10,1.0,5.0,53,0.00,,,0.00,weatherlink.com 1.10,2013-09-04 17:48:00,
2013-09-04 14:03:00,76.5,57.0,29.76,NW,314,0.0,7.0,51,0.00,,,0.00,weatherlink.com 1.10,2013-09-04 18:03:00,
2013-09-04 14:18:00,75.8,54.0,29.76,ENE,74,3.0,9.0,47,0.00,,,0.00,weatherlink.com 1.10,2013-09-04 18:18:00,
2013-09-04 14:33:00,75.4,55.0,29.76,NW,323,3.0,10.0,49,0.00,,,0.00,weatherlink.com 1.10,2013-09-04 18:33:00,
2013-09-04 14:48:00,76.1,55.0,29.76,NNW,338,3.0,8.0,49,0.00,,,0.00,weatherlink.com 1.10,2013-09-04 18:48:00,
2013-09-04 15:03:00,76.3,58.0,29.76,NNW,330,0.0,10.0,54,0.00,,,0.00,weatherlink.com 1.10,2013-09-04 19:03:00,
2013-09-04 15:18:00,76.1,57.0,29.76,SW,233,1.0,7.0,52,0.00,,,0.00,weatherlink.com 1.10,2013-09-04 19:18:00,
2013-09-04 15:33:00,76.4,58.0,29.76,WSW,240,2.0,7.0,54,0.00,,,0.00,weatherlink.com 1.10,2013-09-04 19:33:00,
2013-09-04 15:48:00,76.6,58.0,29.77,West,273,2.0,4.0,53,0.00,,,0.00,weatherlink.com 1.10,2013-09-04 19:48:00,
2013-09-04 16:03:00,75.8,59.0,29.76,North,5,0.0,8.0,56,0.00,,,0.00,weatherlink.com 1.10,2013-09-04 20:03:00,
2013-09-04 16:18:00,75.8,58.0,29.76,NE,49,8.0,10.0,54,0.00,,,0.00,weatherlink.com 1.10,2013-09-04 20:18:00,
2013-09-04 16:33:00,75.4,57.0,29.77,North,360,0.0,7.0,54,0.00,,,0.00,weatherlink.com 1.10,2013-09-04 20:33:00,
2013-09-04 16:49:00,75.7,58.0,29.77,North,5,0.0,3.0,54,0.00,,,0.00,weatherlink.com 1.10,2013-09-04 20:49:00,
2013-09-04 17:03:00,75.9,58.0,29.76,North,11,1.0,4.0,55,0.00,,,0.00,weatherlink.com 1.10,2013-09-04 21:03:00,
2013-09-04 17:18:00,76.4,59.0,29.76,North,360,3.0,6.0,56,0.00,,,0.00,weatherlink.com 1.10,2013-09-04 21:18:00,
2013-09-04 17:33:00,76.3,59.0,29.77,NNW,336,0.0,2.0,55,0.00,,,0.00,weatherlink.com 1.10,2013-09-04 21:33:00,
2013-09-04 17:48:00,76.1,60.0,29.77,SSW,192,0.0,3.0,57,0.00,,,0.00,weatherlink.com 1.10,2013-09-04 21:48:00,
2013-09-04 18:03:00,75.0,59.0,29.77,SW,214,0.0,1.0,58,0.00,,,0.00,weatherlink.com 1.10,2013-09-04 22:03:00,
2013-09-04 18:18:00,73.7,60.0,29.77,SW,215,0.0,1.0,63,0.00,,,0.00,weatherlink.com 1.10,2013-09-04 22:18:00,
2013-09-04 18:48:00,71.2,61.0,29.77,NW,324,0.0,0.0,70,0.00,,,0.00,weatherlink.com 1.10,2013-09-04 22:48:00,
2013-09-04 19:03:00,69.4,62.0,29.77,NW,323,0.0,1.0,78,0.00,,,0.00,weatherlink.com 1.10,2013-09-04 23:03:00,
2013-09-04 19:18:00,67.8,62.0,29.77,NW,323,0.0,0.0,82,0.00,,,0.00,weatherlink.com 1.10,2013-09-04 23:18:00,
2013-09-04 19:33:00,66.1,62.0,29.77,NW,324,0.0,0.0,86,0.00,,,0.00,weatherlink.com 1.10,2013-09-04 23:33:00,
2013-09-04 19:48:00,65.1,62.0,29.78,NW,324,0.0,0.0,88,0.00,,,0.00,weatherlink.com 1.10,2013-09-04 23:48:00,
2013-09-04 20:03:00,64.5,62.0,29.79,NW,323,0.0,0.0,90,0.00,,,0.00,weatherlink.com 1.10,2013-09-05 00:03:00,
2013-09-04 20:18:00,64.4,62.0,29.79,NW,324,0.0,1.0,91,0.00,,,0.00,weatherlink.com 1.10,2013-09-05 00:18:00,
2013-09-04 20:33:00,64.5,62.0,29.79,NW,324,0.0,0.0,90,0.00,,,0.00,weatherlink.com 1.10,2013-09-05 00:33:00,
2013-09-04 20:49:00,64.5,62.0,29.79,NW,324,0.0,0.0,91,0.00,,,0.00,weatherlink.com 1.10,2013-09-05 00:49:00,
2013-09-04 21:04:00,65.2,61.0,29.80,South,185,2.0,6.0,85,0.00,,,0.00,weatherlink.com 1.10,2013-09-05 01:04:00,
2013-09-04 21:19:00,66.2,60.0,29.79,South,177,0.0,4.0,79,0.00,,,0.00,weatherlink.com 1.10,2013-09-05 01:19:00,
2013-09-04 21:34:00,65.8,60.0,29.80,SSE,165,1.0,3.0,80,0.00,,,0.00,weatherlink.com 1.10,2013-09-05 01:34:00,
2013-09-04 21:49:00,65.3,59.0,29.80,SSE,166,0.0,1.0,81,0.00,,,0.00,weatherlink.com 1.10,2013-09-05 01:49:00,
2013-09-04 22:03:00,64.7,59.0,29.80,ESE,121,0.0,3.0,81,0.00,,,0.00,weatherlink.com 1.10,2013-09-05 02:03:00,
2013-09-04 22:18:00,64.4,58.0,29.80,SSE,167,0.0,2.0,81,0.00,,,0.00,weatherlink.com 1.10,2013-09-05 02:18:00,
2013-09-04 22:33:00,63.9,59.0,29.81,SSE,167,0.0,1.0,85,0.00,,,0.00,weatherlink.com 1.10,2013-09-05 02:33:00,
2013-09-04 22:49:00,63.4,59.0,29.80,SSE,167,0.0,0.0,86,0.00,,,0.00,weatherlink.com 1.10,2013-09-05 02:49:00,
2013-09-04 23:04:00,62.6,59.0,29.80,SSE,167,0.0,0.0,88,0.00,,,0.00,weatherlink.com 1.10,2013-09-05 03:04:00,
2013-09-04 23:19:00,61.8,59.0,29.80,SSE,167,0.0,0.0,90,0.00,,,0.00,weatherlink.com 1.10,2013-09-05 03:19:00,
2013-09-04 23:34:00,61.2,59.0,29.80,SSE,167,0.0,0.0,91,0.00,,,0.00,weatherlink.com 1.10,2013-09-05 03:34:00,
2013-09-04 23:48:00,60.9,59.0,29.79,SSE,167,0.0,0.0,92,0.00,,,0.00,weatherlink.com 1.10,2013-09-05 03:48:00,